createdAt,value
2022-08-12T00:00:09.763Z,99351.94
2022-08-12T00:02:55.651Z,99371.38
2022-08-12T00:05:56.378Z,99365.63
2022-08-12T00:08:48.952Z,99358.03
2022-08-12T00:11:34.227Z,99337.59
2022-08-12T00:14:20.033Z,99364.59
2022-08-12T00:17:06.850Z,99372.53
2022-08-12T00:19:52.467Z,99371.56
2022-08-12T00:22:39.036Z,99365.28
2022-08-12T00:25:55.754Z,99375.41
2022-08-12T00:28:31.934Z,99367.75
2022-08-12T00:31:17.324Z,99364.03
2022-08-12T00:34:02.942Z,99377.03
2022-08-12T00:36:50.676Z,99382.44
2022-08-12T00:39:36.141Z,99369.59
2022-08-12T00:42:12.619Z,99380.22
2022-08-12T00:44:44.393Z,99377.03
2022-08-12T00:47:24.793Z,99365.34
2022-08-12T00:49:54.663Z,99372.09
2022-08-12T00:52:22.910Z,99363.31
2022-08-12T00:54:49.614Z,99384.22
2022-08-12T00:57:21.971Z,99354.38
2022-08-12T00:59:53.201Z,99377.13
2022-08-12T01:02:35.087Z,99373.41
2022-08-12T01:05:25.558Z,99376.94
2022-08-12T01:08:11.753Z,99373.88
2022-08-12T01:11:02.225Z,99353.06
2022-08-12T01:13:31.443Z,99374.50
2022-08-12T01:16:00.802Z,99373.13
2022-08-12T01:18:29.600Z,99376.53
2022-08-12T01:21:27.331Z,99369.44
2022-08-12T01:24:39.330Z,99368.38
2022-08-12T01:27:08.194Z,99363.50
2022-08-12T01:29:41.895Z,99367.75
2022-08-12T01:32:12.005Z,99360.97
2022-08-12T01:34:41.561Z,99350.66
2022-08-12T01:37:09.844Z,99345.28
2022-08-12T01:40:34.535Z,99346.47
2022-08-12T01:42:43.489Z,99336.78
2022-08-12T01:45:12.604Z,99346.41
2022-08-12T01:48:05.069Z,99336.94
2022-08-12T01:50:45.180Z,99326.94
2022-08-12T01:53:16.152Z,99333.53
2022-08-12T01:55:46.534Z,99336.72
2022-08-12T01:59:12.146Z,99344.72
2022-08-12T02:01:41.735Z,99339.94
2022-08-12T02:04:46.245Z,99341.09
2022-08-12T02:07:54.171Z,99344.31
2022-08-12T02:10:56.939Z,99331.63
2022-08-12T02:13:49.059Z,99343.84
2022-08-12T02:16:47.060Z,99341.72
2022-08-12T02:19:28.729Z,99340.56
2022-08-12T02:22:04.937Z,99324.03
2022-08-12T02:24:34.288Z,99333.63
2022-08-12T02:27:02.009Z,99335.41
2022-08-12T02:29:29.713Z,99316.81
2022-08-12T02:31:57.578Z,99332.66
2022-08-12T02:34:24.655Z,99326.50
2022-08-12T02:36:56.090Z,99324.84
2022-08-12T02:39:28.507Z,99322.97
2022-08-12T02:42:00.556Z,99328.53
2022-08-12T02:44:30.560Z,99317.09
2022-08-12T02:47:01.313Z,99332.75
2022-08-12T02:49:35.092Z,99317.84
2022-08-12T02:52:02.999Z,99321.94
2022-08-12T02:54:30.059Z,99322.09
2022-08-12T02:56:56.853Z,99309.63
2022-08-12T02:59:26.593Z,99318.16
2022-08-12T03:02:03.690Z,99304.94
2022-08-12T03:04:43.901Z,99321.94
2022-08-12T03:07:56.012Z,99320.00
2022-08-12T03:10:25.137Z,99313.03
2022-08-12T03:13:07.499Z,99320.56
2022-08-12T03:15:36.021Z,99320.00
2022-08-12T03:18:28.575Z,99310.06
2022-08-12T03:20:57.441Z,99303.13
2022-08-12T03:23:30.114Z,99294.81
2022-08-12T03:26:00.920Z,99317.44
2022-08-12T03:28:49.200Z,99321.97
2022-08-12T03:31:18.281Z,99323.28
2022-08-12T03:34:01.255Z,99334.56
2022-08-12T03:36:35.649Z,99340.88
2022-08-12T03:39:18.204Z,99327.63
2022-08-12T03:42:22.043Z,99349.56
2022-08-12T03:45:42.065Z,99362.78
2022-08-12T03:48:37.361Z,99356.72
2022-08-12T03:51:23.120Z,99348.69
2022-08-12T03:54:11.046Z,99347.63
2022-08-12T03:56:57.151Z,99340.03
2022-08-12T03:59:42.479Z,99350.09
2022-08-12T04:02:14.661Z,99342.19
2022-08-12T04:04:45.852Z,99318.81
2022-08-12T04:07:14.117Z,99341.19
2022-08-12T04:09:43.061Z,99341.09
2022-08-12T04:12:32.859Z,99352.03
2022-08-12T04:15:10.022Z,99344.09
2022-08-12T04:17:37.728Z,99339.66
2022-08-12T04:20:24.548Z,99337.66
2022-08-12T04:22:54.532Z,99348.84
2022-08-12T04:25:24.446Z,99348.47
2022-08-12T04:27:51.309Z,99334.13
2022-08-12T04:30:32.331Z,99335.56
2022-08-12T04:33:00.380Z,99335.50
2022-08-12T04:35:27.629Z,99346.78
2022-08-12T04:37:58.648Z,99341.09
2022-08-12T04:40:30.501Z,99355.47
2022-08-12T04:42:57.684Z,99363.09
2022-08-12T04:45:25.173Z,99348.00
2022-08-12T04:47:52.501Z,99367.78
2022-08-12T04:50:34.803Z,99335.56
2022-08-12T04:53:08.233Z,99363.38
2022-08-12T04:55:37.656Z,99373.13
2022-08-12T04:58:04.907Z,99360.41
2022-08-12T05:00:31.776Z,99358.84
2022-08-12T05:02:58.729Z,99352.59
2022-08-12T05:05:27.233Z,99371.44
2022-08-12T05:07:55.124Z,99359.84
2022-08-12T05:10:33.741Z,99385.06
2022-08-12T05:13:05.891Z,99373.38
2022-08-12T05:15:32.841Z,99370.66
2022-08-12T05:18:19.411Z,99377.13
2022-08-12T05:20:48.556Z,99350.59
2022-08-12T05:23:20.266Z,99364.50
2022-08-12T05:25:52.176Z,99378.13
2022-08-12T05:28:19.111Z,99376.78
2022-08-12T05:30:46.301Z,99373.16
2022-08-12T05:33:15.821Z,99367.00
2022-08-12T05:35:45.091Z,99376.38
2022-08-12T05:38:38.511Z,99389.47
2022-08-12T05:41:19.337Z,99362.00
2022-08-12T05:43:57.912Z,99360.44
2022-08-12T05:46:26.722Z,99379.75
2022-08-12T05:48:54.867Z,99363.59
2022-08-12T05:51:41.394Z,99360.06
2022-08-12T05:54:09.753Z,99381.31
2022-08-12T05:56:36.909Z,99386.31
2022-08-12T05:59:09.622Z,99385.06
2022-08-12T06:02:11.684Z,99381.28
2022-08-12T06:04:24.321Z,99363.34
2022-08-12T06:06:53.676Z,99356.66
2022-08-12T06:09:22.834Z,99360.06
2022-08-12T06:12:04.244Z,99372.81
2022-08-12T06:14:37.917Z,99373.44
2022-08-12T06:17:08.675Z,99375.31
2022-08-12T06:20:27.469Z,99370.66
2022-08-12T06:22:22.832Z,99357.47
2022-08-12T06:24:50.053Z,99370.84
2022-08-12T06:27:19.031Z,99374.63
2022-08-12T06:30:08.936Z,99377.88
2022-08-12T06:32:33.093Z,99365.97
2022-08-12T06:35:25.896Z,99370.84
2022-08-12T06:37:56.379Z,99366.31
2022-08-12T06:40:44.120Z,99354.59
2022-08-12T06:43:11.094Z,99362.41
2022-08-12T06:45:45.212Z,99357.13
2022-08-12T06:48:13.550Z,99355.38
2022-08-12T06:50:40.600Z,99361.41
2022-08-12T06:53:09.492Z,99361.66
2022-08-12T06:55:36.700Z,99346.94
2022-08-12T06:58:10.572Z,99343.34
2022-08-12T07:00:38.279Z,99355.56
2022-08-12T07:03:22.413Z,99341.25
2022-08-12T07:05:50.842Z,99346.28
2022-08-12T07:08:18.573Z,99346.91
2022-08-12T07:10:57.511Z,99356.19
2022-08-12T07:13:25.400Z,99346.75
2022-08-12T07:15:55.660Z,99353.84
2022-08-12T07:18:32.948Z,99337.91
2022-08-12T07:21:02.633Z,99324.47
2022-08-12T07:23:31.141Z,99345.13
2022-08-12T07:25:59.269Z,99327.06
2022-08-12T07:28:29.485Z,99335.53
2022-08-12T07:30:58.063Z,99337.13
2022-08-12T07:33:31.373Z,99332.88
2022-08-12T07:36:00.212Z,99333.00
2022-08-12T07:38:36.693Z,99328.19
2022-08-12T07:41:07.823Z,99326.34
2022-08-12T07:43:45.020Z,99315.53
2022-08-12T07:46:15.482Z,99310.16
2022-08-12T07:48:49.087Z,99321.75
2022-08-12T07:51:24.852Z,99329.53
2022-08-12T07:54:00.886Z,99316.28
2022-08-12T07:56:31.708Z,99311.25
2022-08-12T07:58:59.473Z,99317.97
2022-08-12T08:01:27.102Z,99322.69
2022-08-12T08:04:18.517Z,99319.81
2022-08-12T08:06:48.740Z,99306.44
2022-08-12T08:09:17.761Z,99319.94
2022-08-12T08:12:03.421Z,99322.06
2022-08-12T08:14:31.931Z,99325.28
2022-08-12T08:17:00.682Z,99304.19
2022-08-12T08:19:29.424Z,99327.59
2022-08-12T08:21:58.910Z,99311.19
2022-08-12T08:24:28.439Z,99321.88
2022-08-12T08:26:59.086Z,99327.81
2022-08-12T08:29:25.941Z,99329.78
2022-08-12T08:32:01.119Z,99322.06
2022-08-12T08:34:53.938Z,99323.97
2022-08-12T08:37:17.430Z,99323.03
2022-08-12T08:39:44.376Z,99315.81
2022-08-12T08:42:30.151Z,99317.16
2022-08-12T08:44:58.942Z,99317.41
2022-08-12T08:47:26.170Z,99301.59
2022-08-12T08:49:53.211Z,99319.06
2022-08-12T08:52:39.928Z,99314.97
2022-08-12T08:55:14.122Z,99320.19
2022-08-12T08:57:44.710Z,99318.84
2022-08-12T09:00:22.100Z,99322.50
2022-08-12T09:02:59.225Z,99322.25
2022-08-12T09:05:28.032Z,99312.03
2022-08-12T09:08:15.458Z,99301.31
2022-08-12T09:10:49.579Z,99315.41
2022-08-12T09:13:29.007Z,99295.97
2022-08-12T09:19:08.002Z,99315.56
2022-08-12T09:21:55.469Z,99307.81
2022-08-12T09:24:22.567Z,99306.75
2022-08-12T09:26:49.863Z,99283.00
2022-08-12T09:30:11.627Z,99270.19
2022-08-12T09:32:31.446Z,99296.91
2022-08-12T09:34:57.493Z,99282.69
2022-08-12T09:37:26.869Z,99297.41
2022-08-12T09:40:05.845Z,99253.38
2022-08-12T09:43:17.515Z,99290.88
2022-08-12T09:46:20.690Z,99289.19
2022-08-12T09:48:36.781Z,99283.97
2022-08-12T09:51:11.015Z,99265.56
2022-08-12T09:54:08.789Z,99277.44
2022-08-12T09:57:00.468Z,99279.28
2022-08-12T10:00:15.704Z,99267.38
2022-08-12T10:02:45.849Z,99272.31
2022-08-12T10:05:00.629Z,99264.91
2022-08-12T10:07:39.617Z,99278.13
2022-08-12T10:10:08.071Z,99267.06
2022-08-12T10:13:11.179Z,99252.47
2022-08-12T10:16:00.958Z,99243.69
2022-08-12T10:18:26.619Z,99242.28
2022-08-12T10:20:53.446Z,99216.84
2022-08-12T10:23:20.332Z,99223.81
2022-08-12T10:26:39.744Z,99239.91
2022-08-12T10:30:38.359Z,99202.66
2022-08-12T10:32:45.315Z,99229.22
2022-08-12T10:35:09.714Z,99195.81
2022-08-12T10:38:33.459Z,99217.88
2022-08-12T10:40:31.476Z,99196.44
2022-08-12T10:43:18.073Z,99220.38
2022-08-12T10:45:47.337Z,99196.03
2022-08-12T10:48:26.529Z,99222.88
2022-08-12T10:52:03.496Z,99231.44
2022-08-12T10:54:02.731Z,99194.44
2022-08-12T10:56:34.566Z,99176.31
2022-08-12T10:59:10.830Z,99222.88
2022-08-12T11:04:17.430Z,99191.06
2022-08-12T11:04:39.504Z,99201.38
2022-08-12T11:08:33.860Z,99207.88
2022-08-12T11:10:01.672Z,99184.84
2022-08-12T11:12:56.971Z,99165.69
2022-08-12T11:15:33.331Z,99171.28
2022-08-12T11:18:07.891Z,99183.34
2022-08-12T11:20:39.375Z,99180.78
2022-08-12T11:23:24.954Z,99174.06
2022-08-12T11:25:57.296Z,99178.31
2022-08-12T11:28:33.529Z,99149.88
2022-08-12T11:31:03.578Z,99146.41
2022-08-12T11:34:04.728Z,99147.84
2022-08-12T11:36:18.016Z,99167.31
2022-08-12T11:38:50.948Z,99156.53
2022-08-12T11:41:31.000Z,99154.84
2022-08-12T11:44:43.157Z,99156.56
2022-08-12T11:46:52.878Z,99160.22
2022-08-12T11:49:31.283Z,99160.88
2022-08-12T11:52:00.472Z,99176.69
2022-08-12T11:54:29.653Z,99161.75
2022-08-12T11:56:59.588Z,99171.84
2022-08-12T12:02:20.713Z,99154.59
2022-08-12T12:04:52.683Z,99170.88
2022-08-12T12:08:37.187Z,99172.03
2022-08-12T12:10:16.649Z,99132.06
2022-08-12T12:12:49.412Z,99136.19
2022-08-12T12:15:24.909Z,99162.34
2022-08-12T12:17:55.847Z,99148.03
2022-08-12T12:20:26.158Z,99174.19
2022-08-12T12:22:54.595Z,99155.75
2022-08-12T12:25:21.438Z,99144.59
2022-08-12T12:28:08.331Z,99183.81
2022-08-12T12:30:55.177Z,99158.28
2022-08-12T12:33:22.420Z,99160.06
2022-08-12T12:36:17.102Z,99158.63
2022-08-12T12:38:37.131Z,99166.34
2022-08-12T12:41:14.349Z,99179.25
2022-08-12T12:43:45.071Z,99145.84
2022-08-12T12:46:30.709Z,99165.53
2022-08-12T12:48:57.659Z,99172.16
2022-08-12T12:52:17.228Z,99172.34
2022-08-12T12:54:11.639Z,99164.13
2022-08-12T12:56:42.725Z,99182.78
2022-08-12T12:59:33.793Z,99181.78
2022-08-12T13:01:59.525Z,99175.41
2022-08-12T13:04:27.324Z,99177.38
2022-08-12T13:06:54.156Z,99161.22
2022-08-12T13:09:22.327Z,99177.06
2022-08-12T13:11:53.126Z,99169.56
2022-08-12T13:14:29.416Z,99149.19
2022-08-12T13:17:02.587Z,99166.94
2022-08-12T13:19:37.721Z,99156.25
2022-08-12T13:22:20.726Z,99171.72
2022-08-12T13:24:56.858Z,99170.56
2022-08-12T13:27:34.887Z,99157.41
2022-08-12T13:30:12.110Z,99164.69
2022-08-12T13:32:40.882Z,99162.41
2022-08-12T13:35:20.172Z,99169.19
2022-08-12T13:37:58.395Z,99128.91
2022-08-12T13:40:27.643Z,99142.91
2022-08-12T13:42:58.164Z,99150.06
2022-08-12T13:45:27.127Z,99138.91
2022-08-12T13:48:04.896Z,99123.31
2022-08-12T13:50:33.317Z,99140.78
2022-08-12T13:53:06.189Z,99137.91
2022-08-12T13:55:50.034Z,99139.94
2022-08-12T13:58:27.998Z,99141.31
2022-08-12T14:00:56.873Z,99139.34
2022-08-12T14:03:28.254Z,99109.81
2022-08-12T14:06:15.537Z,99131.66
2022-08-12T14:08:43.727Z,99128.66
2022-08-12T14:11:12.364Z,99122.44
2022-08-12T14:14:03.905Z,99099.25
2022-08-12T14:16:37.894Z,99111.94
2022-08-12T14:19:22.646Z,99125.75
2022-08-12T14:21:59.847Z,99106.19
2022-08-12T14:24:40.782Z,99114.44
2022-08-12T14:27:10.349Z,99123.81
2022-08-12T14:30:04.291Z,99120.81
2022-08-12T14:32:39.985Z,99113.34
2022-08-12T14:35:09.358Z,99103.66
2022-08-12T14:37:57.911Z,99123.91
2022-08-12T14:40:28.030Z,99115.06
2022-08-12T14:42:57.022Z,99095.69
2022-08-12T14:45:37.067Z,99085.44
2022-08-12T14:48:13.322Z,99100.91
2022-08-12T14:52:16.190Z,99112.22
2022-08-12T14:59:57.256Z,99095.59
2022-08-12T15:02:26.650Z,99102.00
2022-08-12T15:04:59.546Z,99080.09
2022-08-12T15:07:33.646Z,99091.28
2022-08-12T15:10:14.433Z,99090.72
2022-08-12T15:12:41.453Z,99072.94
2022-08-12T15:15:09.161Z,99089.66
2022-08-12T15:17:38.631Z,99081.19
2022-08-12T15:20:31.328Z,99086.91
2022-08-12T15:22:57.879Z,99092.16
2022-08-12T15:25:25.131Z,99085.94
2022-08-12T15:28:04.600Z,99078.09
2022-08-12T15:30:37.218Z,99081.78
2022-08-12T15:33:12.976Z,99074.53
2022-08-12T15:35:53.015Z,99085.09
2022-08-12T15:38:24.629Z,99087.75
2022-08-12T15:40:52.749Z,99079.78
2022-08-12T15:43:50.914Z,99057.75
2022-08-12T15:46:15.170Z,99065.72
2022-08-12T15:48:47.114Z,99075.50
2022-08-12T15:51:57.379Z,99059.06
2022-08-12T15:54:35.300Z,99072.81
2022-08-12T15:57:05.993Z,99078.69
2022-08-12T16:00:00.166Z,99065.38
2022-08-12T16:02:26.702Z,99075.78
2022-08-12T16:04:54.470Z,99076.56
2022-08-12T16:07:30.206Z,99079.06
2022-08-12T16:10:06.986Z,99066.06
2022-08-12T16:12:54.461Z,99082.22
2022-08-12T16:15:26.337Z,99063.34
2022-08-12T16:18:15.287Z,99071.88
2022-08-12T16:20:46.435Z,99087.25
2022-08-12T16:23:36.524Z,99077.84
2022-08-12T16:26:14.514Z,99067.06
2022-08-12T16:28:42.045Z,99080.06
2022-08-12T16:31:14.431Z,99079.34
2022-08-12T16:33:59.535Z,99076.44
2022-08-12T16:36:30.255Z,99079.16
2022-08-12T16:38:57.581Z,99074.69
2022-08-12T16:41:38.245Z,99071.78
2022-08-12T16:44:08.272Z,99083.44
2022-08-12T16:46:36.289Z,99078.53
2022-08-12T16:49:13.384Z,99074.34
2022-08-12T16:51:46.595Z,99041.09
2022-08-12T16:54:16.410Z,99074.19
2022-08-12T16:56:55.249Z,99078.69
2022-08-12T16:59:53.443Z,99066.31
2022-08-12T17:02:18.048Z,99038.63
2022-08-12T17:05:04.749Z,99061.13
2022-08-12T17:07:43.441Z,99068.56
2022-08-12T17:10:18.619Z,99051.97
2022-08-12T17:13:01.426Z,99054.16
2022-08-12T17:15:56.693Z,99044.25
2022-08-12T17:18:43.567Z,99057.72
2022-08-12T17:21:17.570Z,99041.94
2022-08-12T17:23:53.635Z,99057.28
2022-08-12T17:26:30.808Z,99047.31
2022-08-12T17:28:59.993Z,99046.44
2022-08-12T17:31:59.320Z,99045.47
2022-08-12T17:34:38.306Z,99067.56
2022-08-12T17:37:06.484Z,99068.00
2022-08-12T17:40:06.438Z,99063.94
2022-08-12T17:42:32.816Z,99074.69
2022-08-12T17:45:17.084Z,99063.53
2022-08-12T17:48:05.473Z,99077.16
2022-08-12T17:50:38.826Z,99080.03
2022-08-12T17:53:10.232Z,99073.78
2022-08-12T17:55:47.356Z,99086.22
2022-08-12T17:58:35.792Z,99090.34
2022-08-12T18:01:10.895Z,99082.44
2022-08-12T18:04:05.113Z,99085.06
2022-08-12T18:06:32.611Z,99090.19
2022-08-12T18:09:09.669Z,99095.03
2022-08-12T18:12:06.069Z,99097.22
2022-08-12T18:14:37.137Z,99087.91
2022-08-12T18:17:08.518Z,99073.66
2022-08-12T18:20:05.338Z,99092.38
2022-08-12T18:22:30.622Z,99098.50
2022-08-12T18:25:05.033Z,99097.88
2022-08-12T18:27:44.473Z,99095.34
2022-08-12T18:30:16.309Z,99090.53
2022-08-12T18:32:59.101Z,99105.22
2022-08-12T18:35:47.669Z,99103.97
2022-08-12T18:38:19.643Z,99115.28
2022-08-12T18:41:09.571Z,99114.44
2022-08-12T18:43:58.706Z,99111.50
2022-08-12T18:46:40.862Z,99103.97
2022-08-12T18:49:17.852Z,99119.66
2022-08-12T18:52:02.351Z,99122.34
2022-08-12T18:54:34.688Z,99130.94
2022-08-12T18:57:06.614Z,99122.13
2022-08-12T19:00:00.710Z,99139.66
2022-08-12T19:02:40.087Z,99148.38
2022-08-12T19:05:11.223Z,99153.16
2022-08-12T19:07:49.354Z,99153.13
2022-08-12T19:10:27.110Z,99153.53
2022-08-12T19:13:24.008Z,99143.09
2022-08-12T19:15:57.736Z,99158.09
2022-08-12T19:18:31.395Z,99152.78
2022-08-12T19:21:06.409Z,99162.09
2022-08-12T19:23:40.918Z,99145.50
2022-08-12T19:26:12.965Z,99149.06
2022-08-12T19:28:41.754Z,99147.84
2022-08-12T19:31:55.542Z,99154.56
2022-08-12T19:37:38.753Z,99142.75
2022-08-12T19:40:31.930Z,99149.75
2022-08-12T19:43:18.832Z,99150.25
2022-08-12T19:45:53.782Z,99150.06
2022-08-12T19:48:24.022Z,99134.13
2022-08-12T19:50:57.774Z,99149.63
2022-08-12T19:53:27.614Z,99157.47
2022-08-12T19:55:57.498Z,99153.00
2022-08-12T19:58:25.348Z,99153.47
2022-08-12T20:00:55.765Z,99145.13
2022-08-12T20:03:38.664Z,99151.06
2022-08-12T20:06:16.010Z,99139.44
2022-08-12T20:08:49.355Z,99145.44
2022-08-12T20:12:13.401Z,99142.50
2022-08-12T20:14:12.214Z,99140.31
2022-08-12T20:16:52.608Z,99147.75
2022-08-12T20:19:52.788Z,99150.78
2022-08-12T20:22:23.466Z,99148.13
2022-08-12T20:24:55.162Z,99148.84
2022-08-12T20:27:29.842Z,99142.88
2022-08-12T20:30:12.991Z,99133.94
2022-08-12T20:33:00.935Z,99155.25
2022-08-12T20:36:05.835Z,99146.84
2022-08-12T20:38:26.653Z,99143.94
2022-08-12T20:40:55.777Z,99141.63
2022-08-12T20:43:28.176Z,99148.34
2022-08-12T20:45:58.387Z,99143.41
2022-08-12T20:48:29.634Z,99138.16
2022-08-12T20:51:04.603Z,99132.56
2022-08-12T20:53:58.408Z,99130.22
2022-08-12T20:56:33.090Z,99132.84
2022-08-12T20:59:20.123Z,99137.72
2022-08-12T21:01:48.499Z,99115.16
2022-08-12T21:04:36.017Z,99141.53
2022-08-12T21:07:08.737Z,99143.47
2022-08-12T21:09:47.698Z,99130.88
2022-08-12T21:12:28.158Z,99146.66
2022-08-12T21:15:23.235Z,99145.63
2022-08-12T21:18:08.268Z,99149.16
2022-08-12T21:20:36.063Z,99145.72
2022-08-12T21:23:05.817Z,99145.19
2022-08-12T21:25:36.021Z,99153.75
2022-08-12T21:28:12.611Z,99140.59
2022-08-12T21:31:11.760Z,99155.53
2022-08-12T21:33:31.991Z,99156.03
2022-08-12T21:36:14.531Z,99141.16
2022-08-12T21:39:18.899Z,99146.66
2022-08-12T21:41:50.054Z,99145.53
2022-08-12T21:44:24.116Z,99160.84
2022-08-12T21:47:21.518Z,99164.50
2022-08-12T21:50:06.916Z,99162.44
2022-08-12T21:52:41.128Z,99155.69
2022-08-12T21:55:18.810Z,99146.53
2022-08-12T21:57:54.340Z,99147.03
2022-08-12T22:00:32.405Z,99157.84
2022-08-12T22:04:01.586Z,99139.34
2022-08-12T22:06:25.872Z,99148.13
2022-08-12T22:08:59.482Z,99157.28
2022-08-12T22:11:42.483Z,99155.94
2022-08-12T22:14:21.603Z,99143.97
2022-08-12T22:16:53.321Z,99174.38
2022-08-12T22:19:22.583Z,99167.63
2022-08-12T22:21:52.296Z,99165.56
2022-08-12T22:24:26.880Z,99162.06
2022-08-12T22:27:28.241Z,99157.81
2022-08-12T22:30:16.318Z,99143.53
2022-08-12T22:32:49.896Z,99148.50
2022-08-12T22:35:56.639Z,99158.41
2022-08-12T22:38:21.064Z,99159.13
2022-08-12T22:40:52.728Z,99161.47
2022-08-12T22:44:01.014Z,99153.78
2022-08-12T22:46:52.810Z,99156.34
2022-08-12T22:49:36.468Z,99161.84
2022-08-12T22:52:12.432Z,99131.28
2022-08-12T22:54:59.900Z,99126.34
2022-08-12T22:57:49.531Z,99148.66
2022-08-12T23:03:49.336Z,99145.47
2022-08-12T23:06:26.947Z,99132.34
2022-08-12T23:08:54.872Z,99145.03
2022-08-12T23:11:23.465Z,99135.22
2022-08-12T23:14:03.566Z,99117.41
2022-08-12T23:16:34.227Z,99137.47
2022-08-12T23:19:10.806Z,99124.75
2022-08-12T23:22:05.322Z,99130.88
2022-08-12T23:24:56.431Z,99126.47
2022-08-12T23:27:51.861Z,99131.53
2022-08-12T23:30:32.117Z,99140.00
2022-08-12T23:33:02.790Z,99139.50
2022-08-12T23:35:53.696Z,99134.94
2022-08-12T23:38:31.795Z,99097.75
2022-08-12T23:41:00.672Z,99129.72
2022-08-12T23:43:39.750Z,99125.50
2022-08-12T23:46:11.242Z,99132.09
2022-08-12T23:48:38.931Z,99133.13
2022-08-12T23:51:22.331Z,99122.66
2022-08-12T23:54:07.318Z,99131.25
2022-08-12T23:56:36.297Z,99132.31
2022-08-12T23:59:06.760Z,99137.06
